Peterson, Iowa
Current Conditions -  °F | °C
As of 6:55 PM on Wednesday 22 Oct 2014 (Local Time) from KCKP Reporting Station
Overcast Overcast  
Wind Chill: 67°   Ceiling: 4400
Heat Index: 67°   Visibility: 10mi
Dew Point: 52°   Wind: 15mph
Humidity: 58%   Direction: 220°SW
Pressure: 30.03"   Gusts: 24mph
Location:  42.92°N, 95.34°W
Report Text: KCKP 222355Z AUTO 22013G21KT 10SM BKN044 BKN050 OVC070 20/11 A3003 RMK AO2 T01960110 10225 20190
Loading
Personal Weather Stations






























Interactive Weather Map
Tropical Storm Tracking
New forecast layout! Learn more

10-Day Weather Forecast

Advertisements
Track Severe Weather on mobile